createdAt,value
2018-05-17T00:04:03.204Z,2.66
2018-05-17T00:09:58.171Z,2.34
2018-05-17T00:15:53.157Z,2.22
2018-05-17T00:21:48.208Z,4.27
2018-05-17T00:27:43.202Z,2.52
2018-05-17T00:33:38.199Z,2.24
2018-05-17T00:39:33.217Z,2.37
2018-05-17T00:45:28.194Z,2.31
2018-05-17T00:51:23.210Z,2.2
2018-05-17T00:57:18.246Z,3.04
2018-05-17T01:03:13.236Z,2.58
2018-05-17T01:09:08.226Z,2.49
2018-05-17T01:15:03.444Z,2.53
2018-05-17T01:20:58.229Z,2.78
2018-05-17T01:26:53.216Z,3.12
2018-05-17T01:32:48.260Z,2.71
2018-05-17T01:38:43.271Z,2.33
2018-05-17T01:44:38.338Z,2.49
2018-05-17T01:50:33.270Z,2.46
2018-05-17T01:56:28.234Z,3.01
2018-05-17T02:02:23.279Z,3.3
2018-05-17T02:08:18.243Z,2.96
2018-05-17T02:14:13.289Z,2.77
2018-05-17T02:20:08.376Z,2.84
2018-05-17T02:26:03.250Z,3.08
2018-05-17T02:31:58.252Z,2.67
2018-05-17T02:37:53.311Z,2.98
2018-05-17T02:43:48.335Z,3.07
2018-05-17T02:49:43.281Z,2.87
2018-05-17T02:55:38.302Z,3.12
2018-05-17T03:01:33.274Z,3.02
2018-05-17T03:07:28.281Z,2.73
2018-05-17T03:13:23.269Z,2.32
2018-05-17T03:19:18.274Z,2.57
2018-05-17T03:25:13.340Z,3.03
2018-05-17T03:31:08.286Z,3.36
2018-05-17T03:37:03.311Z,3.44
2018-05-17T03:42:58.274Z,2.8
2018-05-17T03:48:53.359Z,3.3
2018-05-17T03:54:48.310Z,3.58
2018-05-17T04:00:43.301Z,3.36
2018-05-17T04:06:38.280Z,2.95
2018-05-17T04:12:33.313Z,2.98
2018-05-17T04:18:28.290Z,3.43
2018-05-17T04:24:23.334Z,3.73
2018-05-17T04:30:18.324Z,3.3
2018-05-17T04:36:13.404Z,2.81
2018-05-17T04:42:08.326Z,3.1
2018-05-17T04:48:03.338Z,2.52
2018-05-17T04:53:58.373Z,3.16
2018-05-17T04:59:53.370Z,2.71
2018-05-17T05:05:48.369Z,3.13
2018-05-17T05:11:43.367Z,3.01
2018-05-17T05:17:38.348Z,3.44
2018-05-17T05:23:33.357Z,3.84
2018-05-17T05:29:28.365Z,3.33
2018-05-17T05:35:23.429Z,2.93
2018-05-17T05:41:18.379Z,3.2
2018-05-17T05:47:13.342Z,3.68
2018-05-17T05:53:08.355Z,3.56
2018-05-17T05:59:03.531Z,3.83
2018-05-17T06:04:58.378Z,3.89
2018-05-17T06:10:53.391Z,3.72
2018-05-17T06:16:48.426Z,4.24
2018-05-17T06:22:43.378Z,4.02
2018-05-17T06:28:38.407Z,4.5
2018-05-17T06:34:33.398Z,5.1
2018-05-17T06:40:28.378Z,4.26
2018-05-17T06:46:23.395Z,3.79
2018-05-17T06:52:18.425Z,4.3
2018-05-17T06:58:13.409Z,4.77
2018-05-17T07:04:08.465Z,4.66
2018-05-17T07:10:03.446Z,4.26
2018-05-17T07:15:58.393Z,4.62
2018-05-17T07:21:53.408Z,4.27
2018-05-17T07:27:48.389Z,4.33
2018-05-17T07:33:43.403Z,4.98
2018-05-17T07:39:38.428Z,4.75
2018-05-17T07:45:33.427Z,3.97
2018-05-17T07:51:28.432Z,4.23
2018-05-17T07:57:23.483Z,4.44
2018-05-17T08:03:18.442Z,3.65
2018-05-17T08:09:13.400Z,3.83
2018-05-17T08:15:08.450Z,3.84
2018-05-17T08:21:03.447Z,3.95
2018-05-17T08:26:58.511Z,3.54
2018-05-17T08:32:53.470Z,3.68
2018-05-17T08:38:48.475Z,3.77
2018-05-17T08:44:43.450Z,3.57
2018-05-17T08:50:38.471Z,3.89
2018-05-17T08:56:33.491Z,3.53
2018-05-17T09:02:28.510Z,4.43
2018-05-17T09:08:23.470Z,4.1
2018-05-17T09:14:18.442Z,3.75
2018-05-17T09:20:13.539Z,4.27
2018-05-17T09:26:08.483Z,4.11
2018-05-17T09:32:03.470Z,5.53
2018-05-17T09:37:58.482Z,4.68
2018-05-17T09:43:53.513Z,7.23
2018-05-17T09:49:48.516Z,6.2
2018-05-17T09:55:43.496Z,4.2
2018-05-17T10:01:38.480Z,4.21
2018-05-17T10:07:33.538Z,3.91
2018-05-17T10:13:28.533Z,5.18
2018-05-17T10:19:23.465Z,4.53
2018-05-17T10:25:18.499Z,2.94
2018-05-17T10:31:13.511Z,3.31
2018-05-17T10:37:08.518Z,3.01
2018-05-17T10:43:03.589Z,2.78
2018-05-17T10:48:58.575Z,3.13
2018-05-17T10:54:53.519Z,2.63
2018-05-17T11:00:48.506Z,2.97
2018-05-17T11:06:43.536Z,3.01
2018-05-17T11:12:38.540Z,2.73
2018-05-17T11:18:33.563Z,3.32
2018-05-17T11:24:28.520Z,3.52
2018-05-17T11:30:23.534Z,5.25
2018-05-17T11:36:18.523Z,4.42
2018-05-17T11:42:13.590Z,5.03
2018-05-17T11:48:08.586Z,4.21
2018-05-17T11:54:03.597Z,3.71
2018-05-17T11:59:58.543Z,4.07
2018-05-17T12:05:53.561Z,4.18
2018-05-17T12:11:48.602Z,3.39
2018-05-17T12:17:43.618Z,3.14
2018-05-17T12:23:38.620Z,3.58
2018-05-17T12:29:33.611Z,3.03
2018-05-17T12:35:28.603Z,2.58
2018-05-17T12:41:23.590Z,2.74
2018-05-17T12:47:18.582Z,2.67
2018-05-17T12:53:13.611Z,2.73
2018-05-17T12:59:08.573Z,1.84
2018-05-17T13:05:03.596Z,1.84
2018-05-17T13:10:58.603Z,2.23
2018-05-17T13:16:53.598Z,2.66
2018-05-17T13:22:48.613Z,2.84
2018-05-17T13:28:43.648Z,2.79
2018-05-17T13:34:38.643Z,2.07
2018-05-17T13:40:33.633Z,1.66
2018-05-17T13:46:28.618Z,1.21
2018-05-17T13:52:23.656Z,1.47
2018-05-17T13:58:18.664Z,1.47
2018-05-17T14:04:13.674Z,1.41
2018-05-17T14:10:08.661Z,1.72
2018-05-17T14:16:03.701Z,1.51
2018-05-17T14:21:58.673Z,2.04
2018-05-17T14:27:53.664Z,2.35
2018-05-17T14:33:48.634Z,1.73
2018-05-17T14:39:43.656Z,1.5
2018-05-17T14:45:38.673Z,1.58
2018-05-17T14:51:33.701Z,1.58
2018-05-17T14:57:28.670Z,1.59
2018-05-17T15:03:23.686Z,1.86
2018-05-17T15:09:18.724Z,1.37
2018-05-17T15:15:13.683Z,1.75
2018-05-17T15:21:08.665Z,1.77
2018-05-17T15:27:03.667Z,1.87
2018-05-17T15:32:58.680Z,3.31
2018-05-17T15:38:53.693Z,3.47
2018-05-17T15:44:48.663Z,2.14
2018-05-17T15:50:43.697Z,1.9
2018-05-17T15:56:38.742Z,2.63
2018-05-17T16:02:33.701Z,2.05
2018-05-17T16:08:28.761Z,2.02
2018-05-17T16:14:23.699Z,1.42
2018-05-17T16:20:18.761Z,1.33
2018-05-17T16:26:13.749Z,1.16
2018-05-17T16:32:08.721Z,1.12
2018-05-17T16:38:03.729Z,1.69
2018-05-17T16:43:58.702Z,1.81
2018-05-17T16:49:53.746Z,1.88
2018-05-17T16:55:48.711Z,2.06
2018-05-17T17:01:43.754Z,1.92
2018-05-17T17:07:38.759Z,2.04
2018-05-17T17:13:33.720Z,2.01
2018-05-17T17:19:28.774Z,1.85
2018-05-17T17:25:23.725Z,1.82
2018-05-17T17:31:18.757Z,1.94
2018-05-17T17:37:13.761Z,1.87
2018-05-17T17:43:08.730Z,2.98
2018-05-17T17:49:03.756Z,3.33
2018-05-17T17:54:58.888Z,2.49
2018-05-17T18:00:53.771Z,3.1
2018-05-17T18:06:48.816Z,2.78
2018-05-17T18:12:43.758Z,3.22
2018-05-17T18:18:38.752Z,3.55
2018-05-17T18:24:33.791Z,3.59
2018-05-17T18:30:28.791Z,3.26
2018-05-17T18:36:23.856Z,3.79
2018-05-17T18:42:18.778Z,3.55
2018-05-17T18:48:13.775Z,3.72
2018-05-17T18:54:08.789Z,4.16
2018-05-17T19:00:03.817Z,4.48
2018-05-17T19:05:58.828Z,4.77
2018-05-17T19:11:53.802Z,4.77
2018-05-17T19:17:48.845Z,4.64
2018-05-17T19:23:43.819Z,5.32
2018-05-17T19:29:38.797Z,5.03
2018-05-17T19:35:33.810Z,5.3
2018-05-17T19:41:28.803Z,4.93
2018-05-17T19:47:23.836Z,4.44
2018-05-17T19:53:18.832Z,4.9
2018-05-17T19:59:13.824Z,6.07
2018-05-17T20:05:08.817Z,5.55
2018-05-17T20:11:03.929Z,5.92
2018-05-17T20:16:58.813Z,6.44
2018-05-17T20:22:53.816Z,6.26
2018-05-17T20:28:48.860Z,5.93
2018-05-17T20:34:43.870Z,4.82
2018-05-17T20:40:38.872Z,5.51
2018-05-17T20:46:33.865Z,5.41
2018-05-17T20:52:28.925Z,5.76
2018-05-17T20:58:23.872Z,5.9
2018-05-17T21:04:18.910Z,5.95
2018-05-17T21:10:13.898Z,5.66
2018-05-17T21:16:08.885Z,5.04
2018-05-17T21:22:03.868Z,6.2
2018-05-17T21:27:58.875Z,5.85
2018-05-17T21:33:53.880Z,5.81
2018-05-17T21:39:48.892Z,5.45
2018-05-17T21:45:43.883Z,6.19
2018-05-17T21:51:38.930Z,5.88
2018-05-17T21:57:33.876Z,6.21
2018-05-17T22:03:28.901Z,7
2018-05-17T22:09:23.896Z,5.11
2018-05-17T22:15:18.914Z,5.87
2018-05-17T22:21:13.877Z,5.98
2018-05-17T22:27:08.885Z,7.09
2018-05-17T22:33:03.928Z,7.32
2018-05-17T22:38:58.899Z,9.32
2018-05-17T22:44:53.905Z,8.79
2018-05-17T22:50:48.916Z,7.2
2018-05-17T22:56:43.882Z,6.95
2018-05-17T23:02:38.911Z,7.55
2018-05-17T23:08:33.913Z,6.3
2018-05-17T23:14:28.940Z,6.89
2018-05-17T23:20:23.953Z,6.63
2018-05-17T23:26:18.935Z,6.47
2018-05-17T23:32:13.941Z,7.14
2018-05-17T23:38:08.975Z,6.78
2018-05-17T23:44:03.953Z,6.11
2018-05-17T23:49:58.993Z,5.75
2018-05-17T23:55:53.986Z,5.9
